createdAt,value
2023-04-27T00:01:21.895Z,99.90
2023-04-27T00:03:49.166Z,99.90
2023-04-27T00:06:16.239Z,99.90
2023-04-27T00:08:42.978Z,99.90
2023-04-27T00:11:09.740Z,99.90
2023-04-27T00:13:36.460Z,99.90
2023-04-27T00:16:04.012Z,99.90
2023-04-27T00:18:32.108Z,99.90
2023-04-27T00:20:59.006Z,99.90
2023-04-27T00:23:26.287Z,99.90
2023-04-27T00:25:53.072Z,99.90
2023-04-27T00:28:19.943Z,99.90
2023-04-27T00:30:46.653Z,99.90
2023-04-27T00:33:13.437Z,99.90
2023-04-27T00:35:40.796Z,99.90
2023-04-27T00:38:07.667Z,99.90
2023-04-27T00:40:34.484Z,99.90
2023-04-27T00:43:01.471Z,99.90
2023-04-27T00:45:29.184Z,99.90
2023-04-27T00:47:56.518Z,99.90
2023-04-27T00:50:31.663Z,99.90
2023-04-27T00:52:58.605Z,99.90
2023-04-27T00:55:27.557Z,99.90
2023-04-27T00:57:55.126Z,99.90
2023-04-27T01:00:22.139Z,99.90
2023-04-27T01:02:53.224Z,99.90
2023-04-27T01:05:20.409Z,99.90
2023-04-27T01:07:47.144Z,99.90
2023-04-27T01:10:13.883Z,99.90
2023-04-27T01:12:42.035Z,99.90
2023-04-27T01:15:10.546Z,99.90
2023-04-27T01:17:38.978Z,99.90
2023-04-27T01:20:08.603Z,99.90
2023-04-27T01:22:36.904Z,99.90
2023-04-27T01:25:03.925Z,99.90
2023-04-27T01:27:31.349Z,99.90
2023-04-27T01:29:58.111Z,99.90
2023-04-27T01:32:24.866Z,99.90
2023-04-27T01:34:52.322Z,99.90
2023-04-27T01:37:19.046Z,99.90
2023-04-27T01:39:45.883Z,99.90
2023-04-27T01:42:12.814Z,99.90
2023-04-27T01:44:39.929Z,99.90
2023-04-27T01:47:06.666Z,99.90
2023-04-27T01:49:33.779Z,99.90
2023-04-27T01:52:00.807Z,99.90
2023-04-27T01:54:28.801Z,99.90
2023-04-27T01:56:56.237Z,99.90
2023-04-27T01:59:23.021Z,99.90
2023-04-27T02:01:49.811Z,99.90
2023-04-27T02:04:16.764Z,99.90
2023-04-27T02:06:43.750Z,99.90
2023-04-27T02:09:10.717Z,99.90
2023-04-27T02:11:40.686Z,99.90
2023-04-27T02:14:07.411Z,99.90
2023-04-27T02:16:34.337Z,99.90
2023-04-27T02:19:01.611Z,99.90
2023-04-27T02:21:29.476Z,99.90
2023-04-27T02:23:56.549Z,99.90
2023-04-27T02:26:29.171Z,99.90
2023-04-27T02:28:57.250Z,99.90
2023-04-27T02:31:24.629Z,99.90
2023-04-27T02:33:51.863Z,99.90
2023-04-27T02:36:18.633Z,99.90
2023-04-27T02:38:45.502Z,99.90
2023-04-27T02:41:12.195Z,99.90
2023-04-27T02:43:39.124Z,99.90
2023-04-27T02:46:07.876Z,99.90
2023-04-27T02:48:37.557Z,99.90
2023-04-27T02:51:05.175Z,99.90
2023-04-27T02:53:35.032Z,99.90
2023-04-27T02:56:01.956Z,99.90
2023-04-27T02:58:28.801Z,99.90
2023-04-27T03:00:56.819Z,99.90
2023-04-27T03:03:24.491Z,99.90
2023-04-27T03:05:51.355Z,99.90
2023-04-27T03:08:20.685Z,99.90
2023-04-27T03:10:47.423Z,99.90
2023-04-27T03:13:17.009Z,99.90
2023-04-27T03:15:43.895Z,99.90
2023-04-27T03:18:11.297Z,99.90
2023-04-27T03:20:38.072Z,99.90
2023-04-27T03:23:05.084Z,99.90
2023-04-27T03:25:31.870Z,99.90
2023-04-27T03:27:58.610Z,99.90
2023-04-27T03:30:25.390Z,99.90
2023-04-27T03:32:52.178Z,99.90
2023-04-27T03:35:19.043Z,99.90
2023-04-27T03:37:46.173Z,99.90
2023-04-27T03:40:14.500Z,99.90
2023-04-27T03:42:41.395Z,99.90
2023-04-27T03:45:08.945Z,99.90
2023-04-27T03:47:35.682Z,99.90
2023-04-27T03:50:02.837Z,99.90
2023-04-27T03:52:29.621Z,99.90
2023-04-27T03:54:56.350Z,99.90
2023-04-27T03:57:23.164Z,99.90
2023-04-27T03:59:50.013Z,99.90
2023-04-27T04:02:17.186Z,99.90
2023-04-27T04:04:44.522Z,99.90
2023-04-27T04:07:11.813Z,99.90
2023-04-27T04:09:38.908Z,99.90
2023-04-27T04:12:06.337Z,99.90
2023-04-27T04:14:33.164Z,99.90
2023-04-27T04:17:00.697Z,99.90
2023-04-27T04:19:27.467Z,99.90
2023-04-27T04:21:54.677Z,99.90
2023-04-27T04:24:21.657Z,99.90
2023-04-27T04:26:48.658Z,99.90
2023-04-27T04:29:15.641Z,99.90
2023-04-27T04:31:42.740Z,99.90
2023-04-27T04:34:10.565Z,99.90
2023-04-27T04:36:37.997Z,99.90
2023-04-27T04:39:07.471Z,99.90
2023-04-27T04:41:35.424Z,99.90
2023-04-27T04:44:03.111Z,99.90
2023-04-27T04:46:30.771Z,99.90
2023-04-27T04:48:57.766Z,99.90
2023-04-27T04:54:23.250Z,99.90
2023-04-27T04:57:13.648Z,99.90
2023-04-27T04:59:49.275Z,99.90
2023-04-27T05:02:16.231Z,99.90
2023-04-27T05:04:43.031Z,99.90
2023-04-27T05:07:12.672Z,99.90
2023-04-27T05:09:41.615Z,99.90
2023-04-27T05:12:08.477Z,99.90
2023-04-27T05:14:35.307Z,99.90
2023-04-27T05:17:02.246Z,99.90
2023-04-27T05:19:31.724Z,99.90
2023-04-27T05:21:59.105Z,99.90
2023-04-27T05:24:26.330Z,99.90
2023-04-27T05:26:53.395Z,99.90
2023-04-27T05:29:20.037Z,99.90
2023-04-27T05:31:46.769Z,99.90
2023-04-27T05:34:13.521Z,99.90
2023-04-27T05:36:41.974Z,99.90
2023-04-27T05:39:08.617Z,99.90
2023-04-27T05:41:35.307Z,99.90
2023-04-27T05:44:02.036Z,99.90
2023-04-27T05:46:29.504Z,99.90
2023-04-27T05:48:56.286Z,99.90
2023-04-27T05:51:23.131Z,99.90
2023-04-27T05:53:49.883Z,99.90
2023-04-27T05:56:16.637Z,99.90
2023-04-27T05:58:43.300Z,99.90
2023-04-27T06:01:10.032Z,99.90
2023-04-27T06:03:36.930Z,99.90
2023-04-27T06:06:03.999Z,99.90
2023-04-27T06:08:31.575Z,99.90
2023-04-27T06:10:58.425Z,99.90
2023-04-27T06:13:25.143Z,99.90
2023-04-27T06:15:51.877Z,99.90
2023-04-27T06:18:18.832Z,99.90
2023-04-27T06:20:45.948Z,99.90
2023-04-27T06:23:12.908Z,99.90
2023-04-27T06:25:40.508Z,99.90
2023-04-27T06:28:07.240Z,99.90
2023-04-27T06:30:34.333Z,99.90
2023-04-27T06:33:01.580Z,99.90
2023-04-27T06:35:28.300Z,99.90
2023-04-27T06:37:58.802Z,99.90
2023-04-27T06:40:26.688Z,99.90
2023-04-27T06:42:53.639Z,99.90
2023-04-27T06:45:20.893Z,99.90
2023-04-27T06:47:47.625Z,99.90
2023-04-27T06:50:15.554Z,99.90
2023-04-27T06:52:42.855Z,99.90
2023-04-27T06:55:09.755Z,99.90
2023-04-27T06:57:36.528Z,99.90
2023-04-27T07:00:05.098Z,99.90
2023-04-27T07:02:32.067Z,99.90
2023-04-27T07:05:01.356Z,99.90
2023-04-27T07:07:28.880Z,99.90
2023-04-27T07:09:55.597Z,99.90
2023-04-27T07:12:23.410Z,99.90
2023-04-27T07:14:50.984Z,99.90
2023-04-27T07:17:17.728Z,99.90
2023-04-27T07:19:44.580Z,99.90
2023-04-27T07:22:11.880Z,99.90
2023-04-27T07:24:38.762Z,99.90
2023-04-27T07:27:05.527Z,99.60
2023-04-27T07:29:32.666Z,99.90
2023-04-27T07:31:59.683Z,99.90
2023-04-27T07:34:29.116Z,99.90
2023-04-27T07:36:57.641Z,99.10
2023-04-27T07:39:24.402Z,99.90
2023-04-27T07:41:51.738Z,99.90
2023-04-27T07:44:19.488Z,99.90
2023-04-27T07:46:49.890Z,99.90
2023-04-27T07:49:16.832Z,99.10
2023-04-27T07:51:43.955Z,97.90
2023-04-27T07:54:11.562Z,99.00
2023-04-27T07:56:41.832Z,99.90
2023-04-27T07:59:09.503Z,99.60
2023-04-27T08:01:36.436Z,99.90
2023-04-27T08:04:03.287Z,99.90
2023-04-27T08:06:31.141Z,99.90
2023-04-27T08:09:00.638Z,99.90
2023-04-27T08:11:27.448Z,99.90
2023-04-27T08:13:54.196Z,99.90
2023-04-27T08:16:21.114Z,99.90
2023-04-27T08:18:48.991Z,99.90
2023-04-27T08:21:15.852Z,99.90
2023-04-27T08:23:42.708Z,99.90
2023-04-27T08:26:14.593Z,99.90
2023-04-27T08:28:41.361Z,99.90
2023-04-27T08:31:08.238Z,99.90
2023-04-27T08:33:35.202Z,99.90
2023-04-27T08:36:01.920Z,99.90
2023-04-27T08:38:28.550Z,99.90
2023-04-27T08:40:55.303Z,99.90
2023-04-27T08:43:22.024Z,99.90
2023-04-27T08:45:53.333Z,99.90
2023-04-27T08:48:20.670Z,99.90
2023-04-27T08:50:51.442Z,99.70
2023-04-27T08:53:22.214Z,99.90
2023-04-27T08:55:50.042Z,99.90
2023-04-27T08:58:17.057Z,99.90
2023-04-27T09:00:45.435Z,99.90
2023-04-27T09:03:25.600Z,99.90
2023-04-27T09:06:03.788Z,99.40
2023-04-27T09:08:48.114Z,97.90
2023-04-27T09:11:16.765Z,99.00
2023-04-27T09:13:45.365Z,98.90
2023-04-27T09:16:15.253Z,99.90
2023-04-27T09:18:43.675Z,99.90
2023-04-27T09:21:11.041Z,99.30
2023-04-27T09:23:40.702Z,97.70
2023-04-27T09:26:08.369Z,98.70
2023-04-27T09:28:39.690Z,98.20
2023-04-27T09:31:09.080Z,99.30
2023-04-27T09:33:36.477Z,97.90
2023-04-27T09:36:06.996Z,98.10
2023-04-27T09:38:33.894Z,98.90
2023-04-27T09:41:00.977Z,98.00
2023-04-27T09:43:28.797Z,96.00
2023-04-27T09:45:56.370Z,95.30
2023-04-27T09:48:24.181Z,95.90
2023-04-27T09:50:52.121Z,96.30
2023-04-27T09:53:32.540Z,94.50
2023-04-27T09:56:33.040Z,96.20
2023-04-27T09:59:26.909Z,96.10
2023-04-27T10:02:02.870Z,96.60
2023-04-27T10:04:57.637Z,94.60
2023-04-27T10:07:27.523Z,96.00
2023-04-27T10:09:54.747Z,93.60
2023-04-27T10:12:26.332Z,92.50
2023-04-27T10:15:00.680Z,93.80
2023-04-27T10:17:35.877Z,93.00
2023-04-27T10:20:09.783Z,91.70
2023-04-27T10:22:43.967Z,95.00
2023-04-27T10:25:22.060Z,94.40
2023-04-27T10:27:59.939Z,92.60
2023-04-27T10:30:35.228Z,91.90
2023-04-27T10:33:10.486Z,89.80
2023-04-27T10:35:39.956Z,91.10
2023-04-27T10:38:17.831Z,90.20
2023-04-27T10:40:46.558Z,90.30
2023-04-27T10:43:16.269Z,90.60
2023-04-27T10:45:45.364Z,84.50
2023-04-27T10:48:15.775Z,83.40
2023-04-27T10:50:45.165Z,90.00
2023-04-27T10:53:12.056Z,85.70
2023-04-27T10:55:38.976Z,83.50
2023-04-27T10:58:06.157Z,85.10
2023-04-27T11:00:35.110Z,82.20
2023-04-27T11:03:14.477Z,83.20
2023-04-27T11:05:42.769Z,88.20
2023-04-27T11:08:12.081Z,77.90
2023-04-27T11:10:41.216Z,76.90
2023-04-27T11:13:13.052Z,79.50
2023-04-27T11:15:57.854Z,80.20
2023-04-27T11:18:26.679Z,76.30
2023-04-27T11:21:05.820Z,76.60
2023-04-27T11:23:39.255Z,78.00
2023-04-27T11:26:26.792Z,78.60
2023-04-27T11:29:02.197Z,81.70
2023-04-27T11:31:48.938Z,83.40
2023-04-27T11:34:22.595Z,81.60
2023-04-27T11:39:37.610Z,80.50
2023-04-27T11:42:24.440Z,80.00
2023-04-27T11:44:58.474Z,79.50
2023-04-27T11:47:27.899Z,83.20
2023-04-27T11:50:00.409Z,80.20
2023-04-27T11:52:31.777Z,79.90
2023-04-27T11:55:00.251Z,78.10
2023-04-27T11:57:31.201Z,82.80
2023-04-27T12:00:00.335Z,80.10
2023-04-27T12:02:28.685Z,82.20
2023-04-27T12:04:55.903Z,82.80
2023-04-27T12:07:22.784Z,81.70
2023-04-27T12:09:50.316Z,82.20
2023-04-27T12:12:22.333Z,80.00
2023-04-27T12:14:50.205Z,80.60
2023-04-27T12:17:17.194Z,76.10
2023-04-27T12:19:44.048Z,77.60
2023-04-27T12:22:11.078Z,73.00
2023-04-27T12:24:37.799Z,73.90
2023-04-27T12:27:04.994Z,75.20
2023-04-27T12:29:32.129Z,76.40
2023-04-27T12:31:59.810Z,74.70
2023-04-27T12:34:27.465Z,76.60
2023-04-27T12:36:54.306Z,76.90
2023-04-27T12:39:25.244Z,76.50
2023-04-27T12:41:52.823Z,76.40
2023-04-27T12:44:20.408Z,75.90
2023-04-27T12:46:50.221Z,76.30
2023-04-27T12:49:17.682Z,76.90
2023-04-27T12:51:45.601Z,75.10
2023-04-27T12:54:12.960Z,78.80
2023-04-27T12:56:40.092Z,78.60
2023-04-27T12:59:07.843Z,73.10
2023-04-27T13:01:35.015Z,76.50
2023-04-27T13:04:03.584Z,74.10
2023-04-27T13:06:31.854Z,74.40
2023-04-27T13:08:59.310Z,73.80
2023-04-27T13:11:26.777Z,75.10
2023-04-27T13:13:54.822Z,75.10
2023-04-27T13:16:24.641Z,73.30
2023-04-27T13:18:52.347Z,71.80
2023-04-27T13:21:19.380Z,75.00
2023-04-27T13:23:47.688Z,74.20
2023-04-27T13:26:15.607Z,74.80
2023-04-27T13:28:42.882Z,72.00
2023-04-27T13:31:09.655Z,72.40
2023-04-27T13:33:41.969Z,72.40
2023-04-27T13:36:10.734Z,72.70
2023-04-27T13:38:37.636Z,75.90
2023-04-27T13:41:04.893Z,73.70
2023-04-27T13:43:32.060Z,74.90
2023-04-27T13:46:01.148Z,76.10
2023-04-27T13:48:28.355Z,73.50
2023-04-27T13:50:55.751Z,77.20
2023-04-27T13:53:25.801Z,72.30
2023-04-27T13:55:57.240Z,75.10
2023-04-27T13:58:26.008Z,71.80
2023-04-27T14:00:53.434Z,74.20
2023-04-27T14:03:20.826Z,75.80
2023-04-27T14:05:48.971Z,77.20
2023-04-27T14:08:15.944Z,74.80
2023-04-27T14:10:43.842Z,74.70
2023-04-27T14:13:10.659Z,75.00
2023-04-27T14:15:37.547Z,77.30
2023-04-27T14:18:09.188Z,76.40
2023-04-27T14:20:37.306Z,77.00
2023-04-27T14:23:05.497Z,79.70
2023-04-27T14:25:35.444Z,76.30
2023-04-27T14:28:05.192Z,76.10
2023-04-27T14:30:33.230Z,74.50
2023-04-27T14:33:00.128Z,75.30
2023-04-27T14:35:27.802Z,71.50
2023-04-27T14:37:56.767Z,72.40
2023-04-27T14:40:23.471Z,74.80
2023-04-27T14:42:50.335Z,76.40
2023-04-27T14:45:18.122Z,74.50
2023-04-27T14:47:44.909Z,73.50
2023-04-27T14:50:11.711Z,73.30
2023-04-27T14:52:38.769Z,73.50
2023-04-27T14:55:06.741Z,72.60
2023-04-27T14:57:33.488Z,74.50
2023-04-27T15:00:00.837Z,71.80
2023-04-27T15:02:27.742Z,72.50
2023-04-27T15:04:54.542Z,70.80
2023-04-27T15:07:21.443Z,71.40
2023-04-27T15:09:48.251Z,71.90
2023-04-27T15:12:15.010Z,67.70
2023-04-27T15:14:42.365Z,69.20
2023-04-27T15:17:09.146Z,69.40
2023-04-27T15:19:36.019Z,70.00
2023-04-27T15:22:02.857Z,66.40
2023-04-27T15:24:29.573Z,64.60
2023-04-27T15:26:56.287Z,65.10
2023-04-27T15:29:23.168Z,64.60
2023-04-27T15:31:50.115Z,67.00
2023-04-27T15:34:16.878Z,62.50
2023-04-27T15:36:43.547Z,64.50
2023-04-27T15:39:10.565Z,61.80
2023-04-27T15:41:37.361Z,60.50
2023-04-27T15:44:05.875Z,59.40
2023-04-27T15:46:32.959Z,60.10
2023-04-27T15:48:59.807Z,60.50
2023-04-27T15:51:26.727Z,60.00
2023-04-27T15:53:53.506Z,63.80
2023-04-27T15:56:20.303Z,63.80
2023-04-27T15:58:47.066Z,65.80
2023-04-27T16:01:13.831Z,64.30
2023-04-27T16:03:40.694Z,63.90
2023-04-27T16:06:07.748Z,62.30
2023-04-27T16:08:34.552Z,63.10
2023-04-27T16:11:01.661Z,59.70
2023-04-27T16:13:28.546Z,62.90
2023-04-27T16:15:56.725Z,63.00
2023-04-27T16:18:23.502Z,66.60
2023-04-27T16:20:50.159Z,63.00
2023-04-27T16:23:17.326Z,62.30
2023-04-27T16:25:44.065Z,63.20
2023-04-27T16:28:10.853Z,60.80
2023-04-27T16:30:38.252Z,60.40
2023-04-27T16:33:05.020Z,63.10
2023-04-27T16:35:33.481Z,64.10
2023-04-27T16:38:00.401Z,64.30
2023-04-27T16:40:27.133Z,63.60
2023-04-27T16:42:53.879Z,63.80
2023-04-27T16:45:20.985Z,65.70
2023-04-27T16:47:47.781Z,67.20
2023-04-27T16:50:14.853Z,69.30
2023-04-27T16:52:41.735Z,68.60
2023-04-27T16:55:09.142Z,68.50
2023-04-27T16:57:36.951Z,69.10
2023-04-27T17:00:09.573Z,69.80
2023-04-27T17:02:36.733Z,72.50
2023-04-27T17:07:41.891Z,70.70
2023-04-27T17:10:09.329Z,71.40
2023-04-27T17:12:37.192Z,71.30
2023-04-27T17:15:05.787Z,71.60
2023-04-27T17:17:35.905Z,72.60
2023-04-27T17:20:02.782Z,73.10
2023-04-27T17:22:30.075Z,72.50
2023-04-27T17:24:56.864Z,74.90
2023-04-27T17:27:23.666Z,74.90
2023-04-27T17:29:51.753Z,75.80
2023-04-27T17:32:18.573Z,75.80
2023-04-27T17:34:46.477Z,76.20
2023-04-27T17:37:14.855Z,76.60
2023-04-27T17:39:41.681Z,76.10
2023-04-27T17:42:12.241Z,77.70
2023-04-27T17:44:41.167Z,77.70
2023-04-27T17:47:08.427Z,77.70
2023-04-27T17:49:35.356Z,77.90
2023-04-27T17:52:02.663Z,79.90
2023-04-27T17:54:30.140Z,81.20
2023-04-27T17:56:57.412Z,80.50
2023-04-27T17:59:24.908Z,80.50
2023-04-27T18:01:52.168Z,80.80
2023-04-27T18:04:19.249Z,89.10
2023-04-27T18:06:46.304Z,90.90
2023-04-27T18:09:13.864Z,92.20
2023-04-27T18:11:41.242Z,90.30
2023-04-27T18:14:11.289Z,91.00
2023-04-27T18:16:38.230Z,94.30
2023-04-27T18:19:05.177Z,94.80
2023-04-27T18:21:32.637Z,92.30
2023-04-27T18:23:59.314Z,92.70
2023-04-27T18:26:26.424Z,94.60
2023-04-27T18:28:53.466Z,94.50
2023-04-27T18:31:20.668Z,94.30
2023-04-27T18:33:47.565Z,95.30
2023-04-27T18:36:14.340Z,92.90
2023-04-27T18:38:41.022Z,95.00
2023-04-27T18:41:07.928Z,96.40
2023-04-27T18:43:38.246Z,97.70
2023-04-27T18:46:05.396Z,98.40
2023-04-27T18:48:32.450Z,97.80
2023-04-27T18:50:59.307Z,96.20
2023-04-27T18:53:27.030Z,96.80
2023-04-27T18:55:53.776Z,98.80
2023-04-27T18:58:21.778Z,99.40
2023-04-27T19:00:48.613Z,99.90
2023-04-27T19:03:15.660Z,99.90
2023-04-27T19:05:45.470Z,99.90
2023-04-27T19:08:12.299Z,99.90
2023-04-27T19:10:41.459Z,99.80
2023-04-27T19:13:08.309Z,99.70
2023-04-27T19:15:35.187Z,99.60
2023-04-27T19:18:09.942Z,99.90
2023-04-27T19:20:38.783Z,99.90
2023-04-27T19:23:05.778Z,99.90
2023-04-27T19:25:32.576Z,99.90
2023-04-27T19:27:59.438Z,99.90
2023-04-27T19:30:27.467Z,99.90
2023-04-27T19:32:54.349Z,99.90
2023-04-27T19:35:23.617Z,99.90
2023-04-27T19:37:51.194Z,99.90
2023-04-27T19:40:18.432Z,99.90
2023-04-27T19:42:45.438Z,99.90
2023-04-27T19:45:12.491Z,99.90
2023-04-27T19:47:39.404Z,99.90
2023-04-27T19:50:06.616Z,99.90
2023-04-27T19:52:33.413Z,99.90
2023-04-27T19:55:00.269Z,99.90
2023-04-27T19:57:27.218Z,99.90
2023-04-27T19:59:53.955Z,99.90
2023-04-27T20:02:21.502Z,99.90
2023-04-27T20:04:48.798Z,99.90
2023-04-27T20:07:15.876Z,99.90
2023-04-27T20:09:42.735Z,99.90
2023-04-27T20:12:15.879Z,99.90
2023-04-27T20:14:50.969Z,99.90
2023-04-27T20:17:17.905Z,99.90
2023-04-27T20:19:46.073Z,99.90
2023-04-27T20:22:13.099Z,99.90
2023-04-27T20:24:40.292Z,99.90
2023-04-27T20:27:07.003Z,99.90
2023-04-27T20:29:33.715Z,99.90
2023-04-27T20:32:00.606Z,99.90
2023-04-27T20:34:27.559Z,99.90
2023-04-27T20:36:54.251Z,99.90
2023-04-27T20:39:21.170Z,99.90
2023-04-27T20:41:47.816Z,99.90
2023-04-27T20:44:15.754Z,99.90
2023-04-27T20:46:42.619Z,99.90
2023-04-27T20:49:09.383Z,99.90
2023-04-27T20:51:36.578Z,99.90
2023-04-27T20:54:03.302Z,99.90
2023-04-27T20:56:33.220Z,99.90
2023-04-27T20:59:00.116Z,99.90
2023-04-27T21:01:27.604Z,99.90
2023-04-27T21:03:54.635Z,99.90
2023-04-27T21:06:22.358Z,99.90
2023-04-27T21:08:49.214Z,99.90
2023-04-27T21:11:18.027Z,99.90
2023-04-27T21:13:44.941Z,99.90
2023-04-27T21:16:11.726Z,99.90
2023-04-27T21:18:38.385Z,99.90
2023-04-27T21:21:06.457Z,99.90
2023-04-27T21:23:36.465Z,99.90
2023-04-27T21:26:03.221Z,99.90
2023-04-27T21:28:30.153Z,99.90
2023-04-27T21:30:56.957Z,99.90
2023-04-27T21:33:23.677Z,99.90
2023-04-27T21:35:50.446Z,99.90
2023-04-27T21:38:18.123Z,99.90
2023-04-27T21:40:45.535Z,99.90
2023-04-27T21:43:12.187Z,99.90
2023-04-27T21:45:39.571Z,99.90
2023-04-27T21:48:06.394Z,99.90
2023-04-27T21:50:33.545Z,99.90
2023-04-27T21:53:00.329Z,99.90
2023-04-27T21:55:27.205Z,99.90
2023-04-27T21:57:53.918Z,99.90
2023-04-27T22:00:20.887Z,99.90
2023-04-27T22:02:48.354Z,99.90
2023-04-27T22:05:16.989Z,99.90
2023-04-27T22:07:45.857Z,99.90
2023-04-27T22:10:12.539Z,99.90
2023-04-27T22:12:39.302Z,99.90
2023-04-27T22:15:06.674Z,99.90
2023-04-27T22:17:33.546Z,99.90
2023-04-27T22:20:00.375Z,99.90
2023-04-27T22:22:27.068Z,99.90
2023-04-27T22:24:53.791Z,99.90
2023-04-27T22:27:20.619Z,99.90
2023-04-27T22:29:47.318Z,99.90
2023-04-27T22:32:14.949Z,99.90
2023-04-27T22:34:42.751Z,99.90
2023-04-27T22:37:09.518Z,99.90
2023-04-27T22:39:36.395Z,99.90
2023-04-27T22:42:03.200Z,99.90
2023-04-27T22:44:29.882Z,99.90
2023-04-27T22:46:57.066Z,99.90
2023-04-27T22:49:24.183Z,99.90
2023-04-27T22:51:50.911Z,99.90
2023-04-27T22:54:17.679Z,99.90
2023-04-27T22:56:44.674Z,99.90
2023-04-27T22:59:12.326Z,99.90
2023-04-27T23:01:39.226Z,99.90
2023-04-27T23:04:06.182Z,99.90
2023-04-27T23:06:35.811Z,99.90
2023-04-27T23:09:03.200Z,99.90
2023-04-27T23:11:29.965Z,99.90
2023-04-27T23:13:57.593Z,99.90
2023-04-27T23:16:25.701Z,99.90
2023-04-27T23:18:52.817Z,99.90
2023-04-27T23:21:19.513Z,99.90
2023-04-27T23:23:46.421Z,99.90
2023-04-27T23:26:14.339Z,99.90
2023-04-27T23:28:41.412Z,99.90
2023-04-27T23:31:08.934Z,99.90
2023-04-27T23:33:35.664Z,99.90
2023-04-27T23:36:02.805Z,99.90
2023-04-27T23:38:29.972Z,99.90
2023-04-27T23:40:56.730Z,99.90
2023-04-27T23:43:23.410Z,99.90
2023-04-27T23:45:51.539Z,99.90
2023-04-27T23:48:19.328Z,99.90
2023-04-27T23:50:46.408Z,99.90
2023-04-27T23:53:13.190Z,99.90
2023-04-27T23:55:39.924Z,99.90
2023-04-27T23:58:06.584Z,99.90
